Time;durP1;ratioP1;P1;durP2;ratioP2;P2;SDS_P1;SDS_P2;PMS_P1;PMS_P2;Temp;Humidity;BMP_temperature;BMP_pressure;BME280_temperature;BME280_humidity;BME280_pressure;Samples;Min_cycle;Max_cycle;Signal;HPM_P1;HPM_P2
2023/08/04 00:00:10;;;;;;;1.52;0.25;;;;;;;16.22;100.00;99336.56;4802972;29;20046;-92
2023/08/04 00:02:38;;;;;;;0.10;0.10;;;;;;;16.23;100.00;99327.66;4801370;29;20511;-92
2023/08/04 00:05:05;;;;;;;3.85;1.33;;;;;;;16.21;100.00;99326.63;4803750;29;20043;-91
2023/08/04 00:07:31;;;;;;;0.10;0.10;;;;;;;16.23;100.00;99321.31;4790908;29;20054;-92
2023/08/04 00:09:59;;;;;;;0.00;0.00;;;;;;;15.99;100.00;99276.81;4820604;29;20071;-92
2023/08/04 00:12:25;;;;;;;0.55;0.55;;;;;;;16.06;100.00;99295.16;4790756;29;20122;-93
2023/08/04 00:14:53;;;;;;;0.10;0.10;;;;;;;16.05;100.00;99291.63;4801480;29;20094;-91
2023/08/04 00:17:29;;;;;;;0.05;0.05;;;;;;;15.92;100.00;99273.66;4804993;29;20831;-94
2023/08/04 00:19:56;;;;;;;0.17;0.17;;;;;;;16.19;100.00;99309.56;4793024;29;20082;-93
2023/08/04 00:22:25;;;;;;;0.88;0.82;;;;;;;15.91;100.00;99294.50;4808601;29;20050;-93
2023/08/04 00:24:53;;;;;;;0.20;0.20;;;;;;;16.02;100.00;99297.41;4818536;29;20539;-93
2023/08/04 00:27:19;;;;;;;0.30;0.30;;;;;;;16.10;100.00;99304.13;4818921;29;20042;-89
2023/08/04 00:29:45;;;;;;;0.00;0.00;;;;;;;16.07;100.00;99299.50;4804924;29;20054;-91
2023/08/04 00:32:10;;;;;;;0.28;0.28;;;;;;;16.07;100.00;99316.28;4814398;29;20046;-91
2023/08/04 00:34:36;;;;;;;0.00;0.00;;;;;;;15.97;100.00;99309.34;4819018;29;20099;-90
2023/08/04 00:37:01;;;;;;;1.35;0.73;;;;;;;15.96;100.00;99313.38;4819850;29;20047;-91
2023/08/04 00:39:27;;;;;;;0.50;0.50;;;;;;;16.03;100.00;99301.75;4814785;29;20046;-91
2023/08/04 00:41:52;;;;;;;0.00;0.00;;;;;;;15.95;100.00;99289.47;4820785;29;20082;-93
2023/08/04 00:44:18;;;;;;;0.20;0.20;;;;;;;15.96;100.00;99283.38;4805386;29;20516;-93
2023/08/04 00:46:44;;;;;;;0.00;0.00;;;;;;;15.92;100.00;99262.47;4807433;29;20138;-94
2023/08/04 00:49:10;;;;;;;0.10;0.10;;;;;;;16.03;100.00;99282.94;4806733;29;20137;-94
2023/08/04 00:51:37;;;;;;;0.00;0.00;;;;;;;15.79;100.00;99244.03;4801145;29;20615;-92
2023/08/04 00:54:03;;;;;;;0.10;0.10;;;;;;;16.03;100.00;99273.78;4821005;29;20050;-93
2023/08/04 00:56:31;;;;;;;0.22;0.22;;;;;;;16.01;100.00;99256.75;4804317;29;20043;-90
2023/08/04 00:58:58;;;;;;;0.38;0.32;;;;;;;16.06;100.00;99261.59;4816862;29;20058;-90
2023/08/04 01:01:23;;;;;;;0.00;0.00;;;;;;;16.01;100.00;99253.94;4818855;29;20061;-91
2023/08/04 01:03:51;;;;;;;0.10;0.10;;;;;;;16.06;100.00;99247.63;4814781;29;20043;-91
2023/08/04 01:06:37;;;;;;;0.35;0.32;;;;;;;16.07;100.00;99260.34;4818771;29;20098;-91
2023/08/04 01:09:14;;;;;;;0.10;0.10;;;;;;;16.10;100.00;99270.53;4816064;29;20047;-90
2023/08/04 01:11:48;;;;;;;0.10;0.10;;;;;;;15.98;100.00;99244.50;4819181;29;20114;-90
2023/08/04 01:14:14;;;;;;;0.40;0.40;;;;;;;16.02;100.00;99261.81;4833397;29;20072;-91
2023/08/04 01:16:40;;;;;;;0.00;0.00;;;;;;;15.84;100.00;99243.34;4818908;29;20038;-92
2023/08/04 01:19:06;;;;;;;0.15;0.15;;;;;;;15.80;100.00;99228.81;4818204;29;20117;-90
2023/08/04 01:21:41;;;;;;;0.10;0.10;;;;;;;15.91;100.00;99250.53;4817579;29;20038;-90
2023/08/04 01:24:07;;;;;;;0.30;0.30;;;;;;;15.90;100.00;99248.97;4800646;29;20050;-94
2023/08/04 01:26:35;;;;;;;0.25;0.20;;;;;;;15.76;100.00;99245.03;4829296;29;20090;-93
2023/08/04 01:29:01;;;;;;;0.38;0.38;;;;;;;15.80;100.00;99267.97;4817889;29;20504;-93
2023/08/04 01:31:27;;;;;;;0.25;0.25;;;;;;;15.78;100.00;99241.72;4817422;29;20049;-92
2023/08/04 01:33:52;;;;;;;0.20;0.20;;;;;;;15.79;100.00;99260.06;4820017;29;20512;-95
2023/08/04 01:36:18;;;;;;;0.47;0.15;;;;;;;15.76;100.00;99267.41;4802768;29;20042;-92
2023/08/04 01:38:43;;;;;;;0.20;0.10;;;;;;;15.86;100.00;99279.97;4803455;29;20050;-93
2023/08/04 01:41:09;;;;;;;0.65;0.47;;;;;;;15.72;100.00;99269.66;4820153;29;20205;-93
2023/08/04 01:43:34;;;;;;;0.35;0.10;;;;;;;15.82;100.00;99293.38;4818794;29;20046;-93
2023/08/04 01:46:00;;;;;;;5.97;1.75;;;;;;;15.74;100.00;99309.06;4803197;29;20061;-93
2023/08/04 01:48:26;;;;;;;0.13;0.10;;;;;;;15.77;100.00;99336.03;4818139;29;20086;-93
2023/08/04 01:50:52;;;;;;;0.00;0.00;;;;;;;15.85;100.00;99365.09;4828210;29;20366;-93
2023/08/04 01:53:17;;;;;;;0.00;0.00;;;;;;;15.81;100.00;99369.41;4835145;29;20065;-94
2023/08/04 01:55:43;;;;;;;0.20;0.20;;;;;;;15.80;100.00;99382.59;4806679;29;20042;-93
2023/08/04 01:58:09;;;;;;;0.20;0.20;;;;;;;15.81;100.00;99409.28;4817363;29;20050;-92
2023/08/04 02:00:34;;;;;;;0.45;0.45;;;;;;;15.63;100.00;99401.19;4837628;29;20049;-93
2023/08/04 02:03:00;;;;;;;0.20;0.20;;;;;;;15.72;100.00;99415.03;4823222;29;20054;-94
2023/08/04 02:05:25;;;;;;;1.75;1.10;;;;;;;15.70;100.00;99403.56;4812757;29;20564;-95
2023/08/04 02:07:51;;;;;;;0.20;0.20;;;;;;;15.60;100.00;99339.88;4809709;29;20042;-94
2023/08/04 02:10:16;;;;;;;0.10;0.10;;;;;;;15.39;100.00;99283.16;4821016;29;20520;-94
2023/08/04 02:12:42;;;;;;;0.13;0.10;;;;;;;15.60;100.00;99353.84;4818930;29;20053;-95
2023/08/04 02:15:08;;;;;;;0.10;0.10;;;;;;;15.66;100.00;99335.13;4839650;29;20381;-92
2023/08/04 02:17:34;;;;;;;0.00;0.00;;;;;;;15.60;100.00;99318.28;4823089;29;20405;-95
2023/08/04 02:20:00;;;;;;;0.00;0.00;;;;;;;15.58;100.00;99326.38;4826742;29;20042;-94
2023/08/04 02:22:25;;;;;;;0.13;0.13;;;;;;;15.36;100.00;99304.47;4827046;29;20033;-90
2023/08/04 02:24:51;;;;;;;0.43;0.30;;;;;;;15.54;100.00;99337.00;4839677;29;20147;-91
2023/08/04 02:27:17;;;;;;;0.00;0.00;;;;;;;15.38;100.00;99323.53;4840313;29;20053;-90
2023/08/04 02:29:42;;;;;;;0.20;0.20;;;;;;;15.52;100.00;99342.31;4838915;29;20424;-89
2023/08/04 02:32:10;;;;;;;0.00;0.00;;;;;;;15.36;100.00;99318.44;4840256;29;20136;-91
2023/08/04 02:34:36;;;;;;;0.15;0.15;;;;;;;15.50;100.00;99342.03;4824659;29;20488;-93
2023/08/04 02:37:02;;;;;;;0.30;0.30;;;;;;;15.54;100.00;99339.78;4827290;29;20080;-94
2023/08/04 02:39:27;;;;;;;0.03;0.03;;;;;;;15.50;100.00;99333.63;4826033;29;20049;-93
2023/08/04 02:41:53;;;;;;;0.57;0.55;;;;;;;15.61;100.00;99328.19;4810695;29;20035;-94
2023/08/04 02:44:19;;;;;;;0.20;0.20;;;;;;;15.67;100.00;99326.25;4826140;29;20080;-95
2023/08/04 02:46:45;;;;;;;0.15;0.10;;;;;;;15.72;100.00;99328.34;4812161;29;20488;-95
2023/08/04 02:49:11;;;;;;;0.00;0.00;;;;;;;15.71;100.00;99314.84;4826986;29;20045;-93
2023/08/04 02:51:36;;;;;;;0.17;0.17;;;;;;;15.59;100.00;99288.03;4839167;29;20404;-90
2023/08/04 02:54:02;;;;;;;0.10;0.10;;;;;;;15.65;100.00;99286.81;4820442;29;20042;-90
2023/08/04 02:56:27;;;;;;;0.35;0.35;;;;;;;15.79;100.00;99310.38;4838769;29;20093;-91
2023/08/04 02:58:53;;;;;;;0.03;0.03;;;;;;;15.56;100.00;99275.03;4823839;29;20057;-90
2023/08/04 03:01:18;;;;;;;0.45;0.20;;;;;;;15.62;100.00;99285.00;4823180;29;20046;-90
2023/08/04 03:03:44;;;;;;;0.00;0.00;;;;;;;15.74;100.00;99299.88;4839079;29;20053;-90
2023/08/04 03:06:10;;;;;;;2.63;0.63;;;;;;;15.70;100.00;99302.13;4839373;29;20050;-90
2023/08/04 03:08:35;;;;;;;0.15;0.15;;;;;;;15.65;100.00;99291.66;4838626;29;20602;-90
2023/08/04 03:11:01;;;;;;;0.17;0.17;;;;;;;15.54;100.00;99272.72;4823199;29;20099;-91
2023/08/04 03:13:27;;;;;;;0.28;0.28;;;;;;;15.57;100.00;99270.97;4808390;29;20086;-90
2023/08/04 03:15:57;;;;;;;0.38;0.35;;;;;;;15.66;100.00;99302.34;4824619;29;20042;-90
2023/08/04 03:18:23;;;;;;;0.10;0.10;;;;;;;15.57;100.00;99299.69;4809238;29;20050;-90
2023/08/04 03:20:49;;;;;;;0.00;0.00;;;;;;;15.58;100.00;99312.41;4823662;29;20560;-90
2023/08/04 03:23:14;;;;;;;0.40;0.30;;;;;;;15.57;100.00;99296.88;4821970;29;20076;-91
2023/08/04 03:25:40;;;;;;;0.13;0.10;;;;;;;15.70;100.00;99316.88;4837166;29;20642;-90
2023/08/04 03:28:06;;;;;;;0.10;0.10;;;;;;;15.65;100.00;99316.84;4809324;29;20113;-90
2023/08/04 03:30:31;;;;;;;0.57;0.25;;;;;;;15.59;100.00;99308.34;4808200;29;20136;-94
2023/08/04 03:32:57;;;;;;;0.00;0.00;;;;;;;15.63;100.00;99331.28;4841763;29;20050;-93
2023/08/04 03:35:23;;;;;;;0.00;0.00;;;;;;;15.61;100.00;99333.78;4824113;29;20137;-93
2023/08/04 03:37:50;;;;;;;0.00;0.00;;;;;;;15.67;100.00;99347.84;4825996;29;20512;-93
2023/08/04 03:40:15;;;;;;;0.00;0.00;;;;;;;15.65;100.00;99356.72;4821624;29;20087;-93
2023/08/04 03:42:41;;;;;;;0.52;0.52;;;;;;;15.68;100.00;99375.31;4825239;29;20074;-93
2023/08/04 03:45:07;;;;;;;0.00;0.00;;;;;;;15.62;100.00;99368.88;4809760;29;20523;-94
2023/08/04 03:47:36;;;;;;;0.13;0.13;;;;;;;15.62;100.00;99370.91;4822017;29;20050;-93
2023/08/04 03:50:03;;;;;;;0.08;0.08;;;;;;;15.60;100.00;99370.63;4836362;29;20050;-93
2023/08/04 03:52:28;;;;;;;0.15;0.15;;;;;;;15.69;100.00;99374.06;4813481;29;20081;-93
2023/08/04 03:54:54;;;;;;;0.43;0.20;;;;;;;15.66;100.00;99358.25;4827670;29;20080;-94
2023/08/04 03:57:19;;;;;;;0.25;0.25;;;;;;;15.52;100.00;99327.56;4827204;29;20046;-93
2023/08/04 03:59:45;;;;;;;0.65;0.20;;;;;;;15.51;100.00;99324.00;4826720;29;20057;-90
2023/08/04 04:02:10;;;;;;;0.20;0.20;;;;;;;15.57;100.00;99340.88;4840478;29;20060;-89
2023/08/04 04:04:36;;;;;;;0.22;0.22;;;;;;;15.65;100.00;99347.59;4839684;29;20151;-89
2023/08/04 04:07:01;;;;;;;0.40;0.40;;;;;;;15.60;100.00;99343.44;4827032;29;20053;-90
2023/08/04 04:09:27;;;;;;;0.00;0.00;;;;;;;15.62;100.00;99368.88;4840923;29;20056;-91
2023/08/04 04:11:52;;;;;;;0.15;0.15;;;;;;;15.60;100.00;99371.41;4855684;29;20096;-90
2023/08/04 04:14:18;;;;;;;0.05;0.05;;;;;;;15.53;100.00;99352.22;4811801;29;20034;-90
2023/08/04 04:16:43;;;;;;;0.10;0.10;;;;;;;15.42;100.00;99321.31;4858323;29;20037;-91
2023/08/04 04:19:09;;;;;;;0.32;0.32;;;;;;;15.54;100.00;99333.44;4839682;29;20540;-92
2023/08/04 04:21:35;;;;;;;0.10;0.10;;;;;;;15.58;100.00;99343.16;4857423;29;20053;-91
2023/08/04 04:24:00;;;;;;;0.20;0.20;;;;;;;15.63;100.00;99342.47;4856233;29;20077;-91
2023/08/04 04:26:26;;;;;;;0.10;0.10;;;;;;;15.58;100.00;99306.81;4840086;29;20412;-92
2023/08/04 04:28:51;;;;;;;0.40;0.40;;;;;;;15.76;100.00;99312.13;4826244;29;20105;-90
2023/08/04 04:31:17;;;;;;;1.25;0.50;;;;;;;15.78;100.00;99290.03;4825847;29;20182;-92
2023/08/04 04:33:42;;;;;;;20.88;0.55;;;;;;;15.71;100.00;99315.63;4824952;29;20045;-91
2023/08/04 04:36:08;;;;;;;1.13;0.52;;;;;;;15.78;100.00;99331.97;4811063;29;20132;-90
2023/08/04 04:38:36;;;;;;;0.65;0.52;;;;;;;15.82;100.00;99340.94;4822781;29;20537;-90
2023/08/04 04:41:02;;;;;;;0.20;0.20;;;;;;;15.73;100.00;99340.31;4810835;29;20049;-91
2023/08/04 04:43:28;;;;;;;0.00;0.00;;;;;;;15.82;100.00;99349.31;4824017;29;20054;-91
2023/08/04 04:45:54;;;;;;;0.05;0.05;;;;;;;15.86;100.00;99363.84;4825624;29;20049;-90
2023/08/04 04:48:21;;;;;;;0.32;0.32;;;;;;;15.77;100.00;99352.06;4810761;29;20073;-90
2023/08/04 04:50:47;;;;;;;0.15;0.15;;;;;;;15.86;100.00;99354.69;4824648;29;20120;-90
2023/08/04 04:53:13;;;;;;;0.20;0.20;;;;;;;15.65;100.00;99317.56;4821595;29;20749;-90
2023/08/04 04:55:38;;;;;;;0.00;0.00;;;;;;;15.94;100.00;99358.59;4835104;29;20052;-91
2023/08/04 04:58:04;;;;;;;0.03;0.03;;;;;;;16.01;100.00;99383.38;4831518;29;20398;-96
2023/08/04 05:00:31;;;;;;;0.20;0.20;;;;;;;15.89;100.00;99369.75;4845120;29;20131;-96
2023/08/04 05:02:57;;;;;;;0.00;0.00;;;;;;;15.72;100.00;99367.50;4833771;29;20049;-95
2023/08/04 05:05:23;;;;;;;0.55;0.55;;;;;;;16.00;100.00;99425.81;4832867;29;20044;-96
2023/08/04 05:07:49;;;;;;;0.15;0.15;;;;;;;15.96;100.00;99428.84;4834637;29;20049;-95
2023/08/04 05:10:14;;;;;;;0.22;0.22;;;;;;;15.85;100.00;99411.91;4833290;29;20041;-96
2023/08/04 05:12:40;;;;;;;0.10;0.10;;;;;;;15.78;100.00;99390.69;4833484;29;20060;-93
2023/08/04 05:15:06;;;;;;;0.25;0.25;;;;;;;16.11;100.00;99415.53;4813337;29;20064;-96
2023/08/04 05:17:33;;;;;;;0.47;0.47;;;;;;;15.94;100.00;99380.22;4829369;29;20053;-95
2023/08/04 05:19:58;;;;;;;0.10;0.05;;;;;;;15.91;100.00;99368.00;4826865;29;20050;-95
2023/08/04 05:22:27;;;;;;;0.00;0.00;;;;;;;16.15;100.00;99392.94;4828960;29;20120;-94
2023/08/04 05:24:52;;;;;;;0.28;0.28;;;;;;;16.17;100.00;99408.00;4813449;29;20061;-96
2023/08/04 05:27:18;;;;;;;0.00;0.00;;;;;;;16.20;100.00;99423.03;4828455;29;20038;-94
2023/08/04 05:29:43;;;;;;;1.55;0.52;;;;;;;16.21;100.00;99419.75;4829673;29;20396;-95
2023/08/04 05:32:09;;;;;;;0.22;0.22;;;;;;;16.27;100.00;99422.59;4828287;29;20106;-94
2023/08/04 05:34:35;;;;;;;0.13;0.13;;;;;;;16.14;100.00;99402.59;4828810;29;20045;-95
2023/08/04 05:37:00;;;;;;;0.00;0.00;;;;;;;16.23;100.00;99442.41;4829076;29;20180;-94
2023/08/04 05:39:26;;;;;;;0.10;0.10;;;;;;;16.23;100.00;99428.41;4844324;29;20419;-95
2023/08/04 05:41:54;;;;;;;0.00;0.00;;;;;;;16.22;100.00;99410.06;4832003;29;20045;-95
2023/08/04 05:44:22;;;;;;;0.65;0.65;;;;;;;16.14;100.00;99410.97;4829943;29;20053;-96
2023/08/04 05:46:48;;;;;;;0.43;0.43;;;;;;;16.31;100.00;99470.72;4836612;29;20140;-95
2023/08/04 05:49:14;;;;;;;0.03;0.03;;;;;;;16.32;100.00;99469.47;4843842;29;20038;-96
2023/08/04 05:51:39;;;;;;;0.28;0.10;;;;;;;16.24;100.00;99401.19;4838426;29;20185;-96
2023/08/04 05:54:05;;;;;;;0.10;0.10;;;;;;;16.17;100.00;99362.47;4836883;29;20045;-95
2023/08/04 05:56:35;;;;;;;0.63;0.25;;;;;;;16.11;100.00;99398.75;4836676;29;20109;-96
2023/08/04 05:59:03;;;;;;;0.22;0.22;;;;;;;16.08;100.00;99427.72;4839726;29;20065;-96
2023/08/04 06:01:29;;;;;;;0.85;0.85;;;;;;;16.06;100.00;99430.22;4837565;29;20049;-95
2023/08/04 06:03:55;;;;;;;0.10;0.10;;;;;;;15.98;100.00;99420.72;4846410;29;20079;-94
2023/08/04 06:06:21;;;;;;;0.22;0.22;;;;;;;16.16;100.00;99453.25;4836016;29;20069;-95
2023/08/04 06:08:47;;;;;;;0.10;0.10;;;;;;;16.10;100.00;99452.38;4836118;29;20504;-94
2023/08/04 06:11:14;;;;;;;0.00;0.00;;;;;;;16.05;100.00;99436.31;4821785;29;20117;-95
2023/08/04 06:13:40;;;;;;;0.52;0.52;;;;;;;16.15;100.00;99440.50;4835843;29;20492;-95
2023/08/04 06:16:08;;;;;;;4.38;0.30;;;;;;;16.44;100.00;99465.56;4832025;29;20065;-96
2023/08/04 06:18:34;;;;;;;0.10;0.10;;;;;;;16.13;100.00;99412.25;4834704;29;20054;-96
2023/08/04 06:20:59;;;;;;;0.00;0.00;;;;;;;16.17;100.00;99399.59;4834642;29;20221;-96
2023/08/04 06:23:25;;;;;;;0.20;0.20;;;;;;;16.26;100.00;99421.06;4823911;29;20637;-95
2023/08/04 06:25:51;;;;;;;0.10;0.10;;;;;;;16.30;100.00;99411.19;4848796;29;20064;-96
2023/08/04 06:28:21;;;;;;;0.55;0.55;;;;;;;16.26;100.00;99407.84;4845047;29;20075;-96
2023/08/04 06:30:47;;;;;;;0.05;0.05;;;;;;;16.41;100.00;99413.38;4830433;29;20050;-96
2023/08/04 06:33:13;;;;;;;0.10;0.10;;;;;;;16.46;100.00;99407.03;4818669;29;20050;-96
2023/08/04 06:35:41;;;;;;;0.52;0.52;;;;;;;16.61;100.00;99390.97;4846413;29;20049;-96
2023/08/04 06:38:11;;;;;;;0.08;0.08;;;;;;;17.05;100.00;99426.25;4835049;29;20057;-96
2023/08/04 06:40:37;;;;;;;0.32;0.30;;;;;;;16.97;100.00;99389.50;4835342;29;20072;-96
2023/08/04 06:43:03;;;;;;;0.22;0.22;;;;;;;17.05;100.00;99381.41;4835149;29;20502;-96
2023/08/04 06:45:29;;;;;;;0.43;0.30;;;;;;;17.11;100.00;99396.22;4836826;29;20186;-96
2023/08/04 06:47:55;;;;;;;0.13;0.13;;;;;;;16.97;100.00;99388.75;4823899;29;20056;-96
2023/08/04 06:50:21;;;;;;;0.10;0.10;;;;;;;17.03;100.00;99403.53;4834815;29;20065;-96
2023/08/04 06:52:47;;;;;;;0.20;0.20;;;;;;;16.98;100.00;99395.88;4830254;29;20041;-96
2023/08/04 06:55:13;;;;;;;0.28;0.28;;;;;;;16.95;100.00;99402.47;4840432;29;20101;-96
2023/08/04 06:57:39;;;;;;;0.00;0.00;;;;;;;17.12;100.00;99451.00;4818333;29;20072;-89
2023/08/04 07:00:05;;;;;;;0.30;0.30;;;;;;;16.96;100.00;99443.22;4842468;29;20049;-89
2023/08/04 07:02:31;;;;;;;0.65;0.20;;;;;;;16.99;100.00;99464.63;4841962;29;20033;-91
2023/08/04 07:04:57;;;;;;;0.03;0.03;;;;;;;16.91;100.00;99455.13;4826210;29;20419;-91
2023/08/04 07:07:22;;;;;;;0.00;0.00;;;;;;;16.76;100.00;99441.25;4846937;29;20046;-89
2023/08/04 07:09:48;;;;;;;0.20;0.20;;;;;;;16.86;100.00;99467.06;4827325;29;20583;-90
2023/08/04 07:12:17;;;;;;;0.55;0.45;;;;;;;16.74;100.00;99444.53;4827432;29;20136;-90
2023/08/04 07:14:43;;;;;;;0.00;0.00;;;;;;;16.85;100.00;99448.72;4842802;29;20087;-89
2023/08/04 07:17:08;;;;;;;0.00;0.00;;;;;;;16.86;100.00;99444.66;4842957;29;20042;-90
2023/08/04 07:19:34;;;;;;;0.00;0.00;;;;;;;16.92;100.00;99440.66;4842503;29;20037;-90
2023/08/04 07:22:03;;;;;;;0.05;0.05;;;;;;;17.12;100.00;99465.03;4826377;29;20052;-90
2023/08/04 07:24:30;;;;;;;0.00;0.00;;;;;;;17.21;100.00;99464.88;4839939;29;20041;-89
2023/08/04 07:26:55;;;;;;;0.15;0.08;;;;;;;17.11;100.00;99446.66;4843442;29;20396;-89
2023/08/04 07:29:21;;;;;;;0.00;0.00;;;;;;;17.10;100.00;99443.13;4841662;29;20542;-88
2023/08/04 07:31:46;;;;;;;0.00;0.00;;;;;;;17.03;100.00;99425.97;4837282;29;20033;-91
2023/08/04 07:34:12;;;;;;;0.20;0.20;;;;;;;17.09;100.00;99430.38;4842192;29;20052;-89
2023/08/04 07:36:38;;;;;;;0.20;0.20;;;;;;;17.27;100.00;99457.25;4841541;29;20034;-88
2023/08/04 07:39:03;;;;;;;0.20;0.20;;;;;;;17.40;100.00;99448.44;4858710;29;20106;-89
2023/08/04 07:41:30;;;;;;;0.10;0.10;;;;;;;17.36;100.00;99426.25;4858027;29;20616;-89
2023/08/04 07:43:55;;;;;;;0.55;0.32;;;;;;;17.77;100.00;99473.72;4858182;29;20361;-89
2023/08/04 07:46:27;;;;;;;0.10;0.10;;;;;;;17.73;100.00;99445.16;4842765;29;20037;-89
2023/08/04 07:48:53;;;;;;;0.22;0.22;;;;;;;17.69;100.00;99446.16;4844708;29;20045;-89
2023/08/04 07:51:19;;;;;;;0.50;0.50;;;;;;;17.91;100.00;99481.22;4840602;29;20076;-89
2023/08/04 07:53:48;;;;;;;0.10;0.10;;;;;;;17.90;100.00;99479.69;4841433;29;20048;-89
2023/08/04 07:56:14;;;;;;;0.10;0.10;;;;;;;17.91;100.00;99484.03;4826555;29;20523;-92
2023/08/04 07:58:40;;;;;;;0.13;0.10;;;;;;;18.00;100.00;99495.03;4827351;29;20592;-88
2023/08/04 08:01:09;;;;;;;0.22;0.22;;;;;;;17.83;100.00;99466.91;4827973;29;20049;-90
2023/08/04 08:03:35;;;;;;;0.25;0.25;;;;;;;17.94;100.00;99492.22;4826888;29;20060;-90
2023/08/04 08:06:02;;;;;;;0.35;0.30;;;;;;;17.89;100.00;99484.53;4857518;29;20456;-90
2023/08/04 08:08:28;;;;;;;0.00;0.00;;;;;;;17.92;100.00;99472.28;4835624;29;20060;-90
2023/08/04 08:11:04;;;;;;;0.40;0.40;;;;;;;17.93;100.00;99467.47;4837752;29;20049;-90
2023/08/04 08:13:30;;;;;;;0.20;0.20;;;;;;;18.00;100.00;99478.97;4852003;29;20041;-90
2023/08/04 08:15:57;;;;;;;1.15;0.88;;;;;;;17.97;100.00;99474.38;4854732;29;20134;-90
2023/08/04 08:18:22;;;;;;;0.00;0.00;;;;;;;17.97;100.00;99470.78;4839098;29;20037;-91
2023/08/04 08:20:48;;;;;;;0.00;0.00;;;;;;;17.94;100.00;99457.78;4821458;29;20046;-91
2023/08/04 08:23:14;;;;;;;0.05;0.05;;;;;;;17.83;100.00;99432.47;4825097;29;20049;-91
2023/08/04 08:25:41;;;;;;;0.10;0.10;;;;;;;18.07;100.00;99455.31;4823564;29;20056;-91
2023/08/04 08:28:07;;;;;;;1.35;0.52;;;;;;;18.21;100.00;99462.75;4822771;29;20487;-91
2023/08/04 08:30:32;;;;;;;0.00;0.00;;;;;;;18.10;100.00;99438.22;4823994;29;20484;-90
2023/08/04 08:32:58;;;;;;;0.10;0.10;;;;;;;18.13;100.00;99453.28;4821097;29;20098;-89
2023/08/04 08:35:23;;;;;;;0.13;0.13;;;;;;;18.11;100.00;99461.44;4821966;29;20033;-89
2023/08/04 08:37:49;;;;;;;0.30;0.22;;;;;;;18.12;100.00;99454.53;4816677;29;20034;-89
2023/08/04 08:40:14;;;;;;;0.15;0.15;;;;;;;18.22;100.00;99460.72;4836650;29;20049;-89
2023/08/04 08:42:40;;;;;;;0.10;0.10;;;;;;;18.18;100.00;99460.97;4822928;29;20037;-90
2023/08/04 08:45:06;;;;;;;0.52;0.15;;;;;;;18.16;100.00;99466.31;4822639;29;20049;-89
2023/08/04 08:47:44;;;;;;;0.25;0.25;;;;;;;18.03;100.00;99435.91;4824270;29;20472;-89
2023/08/04 08:50:11;;;;;;;0.22;0.20;;;;;;;18.17;100.00;99459.41;4805796;29;20057;-90
2023/08/04 08:52:38;;;;;;;0.00;0.00;;;;;;;18.00;100.00;99444.53;4807222;29;20148;-90
2023/08/04 08:55:07;;;;;;;0.63;0.63;;;;;;;18.04;100.00;99443.03;4819988;29;20053;-89
2023/08/04 08:57:33;;;;;;;0.52;0.45;;;;;;;18.20;100.00;99452.78;4807829;29;20126;-90
2023/08/04 09:00:00;;;;;;;0.15;0.15;;;;;;;18.08;100.00;99418.31;4836476;29;20069;-95
2023/08/04 09:02:29;;;;;;;0.55;0.43;;;;;;;18.21;100.00;99420.66;4838557;29;20038;-96
2023/08/04 09:05:00;;;;;;;0.10;0.10;;;;;;;18.39;100.00;99414.63;4824659;29;20053;-96
2023/08/04 09:07:27;;;;;;;0.15;0.10;;;;;;;18.80;100.00;99429.06;4841237;29;20056;-96
2023/08/04 09:09:53;;;;;;;0.30;0.30;;;;;;;18.92;100.00;99387.69;4844319;29;20109;-96
2023/08/04 09:12:20;;;;;;;0.10;0.10;;;;;;;19.38;100.00;99385.09;4828151;29;20065;-96
2023/08/04 09:14:50;;;;;;;0.20;0.20;;;;;;;19.83;100.00;99397.06;4826191;29;20049;-90
2023/08/04 09:17:28;;;;;;;0.28;0.28;;;;;;;20.47;100.00;99423.97;4837469;29;20049;-90
2023/08/04 09:19:54;;;;;;;0.10;0.10;;;;;;;20.69;100.00;99430.78;4853728;29;20206;-91
2023/08/04 09:22:19;;;;;;;0.30;0.30;;;;;;;20.76;100.00;99414.06;4853485;29;20563;-90
2023/08/04 09:24:59;;;;;;;0.47;0.22;;;;;;;21.18;100.00;99409.19;4821731;29;20042;-90
2023/08/04 09:27:35;;;;;;;0.08;0.08;;;;;;;21.50;100.00;99400.97;4822312;29;20440;-90
2023/08/04 09:30:03;;;;;;;0.00;0.00;;;;;;;21.52;100.00;99393.50;4854428;29;20041;-90
2023/08/04 09:32:52;;;;;;;0.20;0.20;;;;;;;21.90;100.00;99402.84;4855770;29;20136;-92
2023/08/04 09:35:18;;;;;;;0.43;0.38;;;;;;;22.15;100.00;99432.63;4821648;29;20098;-89
2023/08/04 09:37:43;;;;;;;0.38;0.38;;;;;;;21.67;100.00;99421.31;4839334;29;20037;-91
2023/08/04 09:40:20;;;;;;;0.30;0.30;;;;;;;21.74;100.00;99420.72;4839354;29;20041;-91
2023/08/04 09:42:47;;;;;;;0.20;0.20;;;;;;;21.84;100.00;99455.78;4853280;29;20203;-91
2023/08/04 09:45:20;;;;;;;0.30;0.30;;;;;;;21.43;100.00;99418.47;4871185;29;20050;-96
2023/08/04 09:47:50;;;;;;;2.55;0.22;;;;;;;21.63;100.00;99454.72;4839813;29;20049;-96
2023/08/04 09:50:23;;;;;;;0.10;0.10;;;;;;;21.45;100.00;99421.53;4823038;29;20069;-96
2023/08/04 09:53:01;;;;;;;0.22;0.22;;;;;;;21.43;100.00;99427.72;4844703;29;20042;-96
2023/08/04 09:55:27;;;;;;;0.63;0.60;;;;;;;21.27;100.00;99429.34;4844993;29;20025;-95
2023/08/04 09:57:59;;;;;;;0.10;0.10;;;;;;;21.51;100.00;99481.50;4835240;29;20033;-96
2023/08/04 10:00:25;;;;;;;0.10;0.10;;;;;;;21.45;100.00;99447.69;4833942;29;20037;-95
2023/08/04 10:02:52;;;;;;;0.20;0.20;;;;;;;21.83;100.00;99479.69;4820280;29;20484;-95
2023/08/04 10:05:18;;;;;;;0.20;0.20;;;;;;;21.66;100.00;99408.50;4818656;29;20048;-95
2023/08/04 10:07:44;;;;;;;0.20;0.20;;;;;;;21.96;100.00;99440.28;4830522;29;20053;-95
2023/08/04 10:10:10;;;;;;;0.52;0.40;;;;;;;22.02;100.00;99441.00;4816463;29;20053;-96
2023/08/04 10:12:37;;;;;;;0.22;0.22;;;;;;;22.42;100.00;99478.03;4831078;29;20053;-96
2023/08/04 10:15:03;;;;;;;0.28;0.28;;;;;;;22.22;100.00;99477.22;4828621;29;20038;-95
2023/08/04 10:17:41;;;;;;;0.10;0.10;;;;;;;21.83;100.00;99434.50;4824418;29;20050;-95
2023/08/04 10:20:09;;;;;;;0.20;0.20;;;;;;;21.80;100.00;99450.44;4837999;29;20054;-95
2023/08/04 10:22:35;;;;;;;0.98;0.52;;;;;;;21.83;100.00;99468.38;4825037;29;20042;-96
2023/08/04 10:25:12;;;;;;;0.10;0.10;;;;;;;21.71;100.00;99441.56;4829948;29;20202;-96
2023/08/04 10:27:49;;;;;;;3.10;1.00;;;;;;;21.97;100.00;99447.47;4825789;29;20052;-95
2023/08/04 10:30:18;;;;;;;0.13;0.13;;;;;;;21.85;100.00;99437.53;4825979;29;20045;-94
2023/08/04 10:32:44;;;;;;;0.10;0.10;;;;;;;21.83;100.00;99468.38;4827077;29;20041;-95
2023/08/04 10:35:18;;;;;;;0.52;0.43;;;;;;;21.73;100.00;99467.94;4810967;29;20046;-94
2023/08/04 10:37:46;;;;;;;0.25;0.20;;;;;;;21.86;100.00;99450.38;4834109;29;20045;-94
2023/08/04 10:40:12;;;;;;;0.90;0.63;;;;;;;21.89;100.00;99432.38;4839560;29;20033;-94
2023/08/04 10:42:58;;;;;;;0.55;0.50;;;;;;;22.24;100.00;99454.84;4830832;29;20060;-95
2023/08/04 10:45:54;;;;;;;0.45;0.45;;;;;;;22.69;100.00;99457.13;4832048;29;20049;-96
2023/08/04 10:48:21;;;;;;;1.33;0.77;;;;;;;23.14;100.00;99455.19;4832576;29;20045;-95
2023/08/04 10:50:48;;;;;;;0.40;0.40;;;;;;;23.38;100.00;99462.03;4830348;29;20045;-96
2023/08/04 10:53:14;;;;;;;0.15;0.10;;;;;;;23.58;100.00;99461.47;4846792;29;20053;-95
2023/08/04 10:55:52;;;;;;;0.10;0.10;;;;;;;24.01;100.00;99481.81;4814627;29;20045;-94
2023/08/04 10:58:18;;;;;;;0.57;0.20;;;;;;;23.91;100.00;99477.88;4937395;23;20143;-92
2023/08/04 11:00:44;;;;;;;0.25;0.25;;;;;;;23.92;100.00;99468.06;4774393;29;20165;-92
2023/08/04 11:03:19;;;;;;;0.30;0.30;;;;;;;24.10;100.00;99450.19;4788393;29;20070;-91
2023/08/04 11:05:45;;;;;;;0.22;0.22;;;;;;;24.19;100.00;99451.09;4783306;29;20134;-91
2023/08/04 11:08:11;;;;;;;0.30;0.30;;;;;;;24.07;100.00;99444.88;4798965;29;20149;-92
2023/08/04 11:10:48;;;;;;;3.40;1.63;;;;;;;24.26;100.00;99453.31;4769761;29;20047;-92
2023/08/04 11:13:17;;;;;;;0.22;0.22;;;;;;;24.34;100.00;99452.09;4787350;29;20095;-92
2023/08/04 11:15:43;;;;;;;0.57;0.50;;;;;;;24.71;100.00;99453.88;4782797;29;20054;-92
2023/08/04 11:18:14;;;;;;;0.50;0.50;;;;;;;24.90;100.00;99453.75;4786707;29;20027;-91
2023/08/04 11:20:40;;;;;;;0.13;0.13;;;;;;;24.97;100.00;99445.31;4786270;29;20055;-92
2023/08/04 11:23:11;;;;;;;0.10;0.10;;;;;;;24.95;100.00;99445.09;4786747;29;20054;-92